Time;durP1;ratioP1;P1;durP2;ratioP2;P2;SDS_P1;SDS_P2;PMS_P1;PMS_P2;Temp;Humidity;BMP_temperature;BMP_pressure;BME280_temperature;BME280_humidity;BME280_pressure;Samples;Min_cycle;Max_cycle;Signal;HPM_P1;HPM_P2
2022/08/01 00:01:52;;;;;;;10.20;5.40;;;20.60;99.90;;;;;;5037465;28;20117;-72
2022/08/01 00:04:18;;;;;;;12.68;6.72;;;20.60;99.90;;;;;;5037684;28;20041;-72
2022/08/01 00:06:44;;;;;;;13.23;6.68;;;20.70;99.90;;;;;;5037582;28;20040;-72
2022/08/01 00:09:09;;;;;;;10.20;5.68;;;20.70;99.90;;;;;;5037551;28;20041;-71
2022/08/01 00:11:35;;;;;;;10.85;5.45;;;20.60;99.90;;;;;;5037524;28;20034;-72
2022/08/01 00:14:01;;;;;;;6.45;4.32;;;20.60;99.90;;;;;;5037477;28;20045;-72
2022/08/01 00:16:27;;;;;;;9.05;5.43;;;20.60;99.90;;;;;;5037171;28;20049;-72
2022/08/01 00:18:53;;;;;;;9.75;5.13;;;20.50;99.90;;;;;;5037083;28;20437;-72
2022/08/01 00:21:19;;;;;;;8.55;5.40;;;20.50;99.90;;;;;;5036525;28;20056;-72
2022/08/01 00:23:45;;;;;;;9.52;4.72;;;20.50;99.90;;;;;;5037420;28;20365;-72
2022/08/01 00:26:12;;;;;;;8.90;5.18;;;20.50;99.90;;;;;;5036961;28;20033;-72
2022/08/01 00:28:38;;;;;;;12.02;4.65;;;20.50;99.90;;;;;;5037115;28;20495;-72
2022/08/01 00:31:03;;;;;;;6.97;4.70;;;20.50;99.90;;;;;;5037005;28;20045;-72
2022/08/01 00:33:29;;;;;;;9.80;4.88;;;20.40;99.90;;;;;;5037027;28;20072;-72
2022/08/01 00:35:55;;;;;;;8.60;5.28;;;20.30;99.90;;;;;;5036956;28;20051;-72
2022/08/01 00:38:21;;;;;;;5.70;4.38;;;20.20;99.90;;;;;;5035986;28;20041;-72
2022/08/01 00:40:47;;;;;;;8.75;4.57;;;20.10;99.90;;;;;;5036934;28;20120;-71
2022/08/01 00:43:16;;;;;;;9.00;4.78;;;20.20;99.90;;;;;;5037155;28;20044;-71
2022/08/01 00:45:42;;;;;;;6.20;3.83;;;20.20;99.90;;;;;;5037073;28;20038;-71
2022/08/01 00:48:07;;;;;;;7.07;4.15;;;20.30;99.90;;;;;;5037012;28;20099;-71
2022/08/01 00:50:33;;;;;;;7.35;4.80;;;20.30;99.90;;;;;;5036882;28;20449;-71
2022/08/01 00:53:00;;;;;;;5.72;3.65;;;20.30;99.90;;;;;;5036658;28;20448;-71
2022/08/01 00:55:27;;;;;;;7.07;4.32;;;20.20;99.90;;;;;;5036792;28;20033;-71
2022/08/01 00:57:54;;;;;;;6.15;3.72;;;20.20;99.90;;;;;;5036461;28;20315;-72
2022/08/01 01:00:19;;;;;;;11.25;4.63;;;20.30;99.90;;;;;;5035180;28;20393;-72
2022/08/01 01:02:45;;;;;;;6.07;3.85;;;20.40;99.90;;;;;;5036940;28;20046;-71
2022/08/01 01:05:11;;;;;;;7.25;4.50;;;20.40;99.90;;;;;;5035448;28;20041;-72
2022/08/01 01:07:58;;;;;;;8.10;4.07;;;20.40;99.90;;;;;;5036813;28;20069;-72
2022/08/01 01:11:01;;;;;;;6.30;4.60;;;20.40;99.90;;;;;;5035450;28;20048;-72
2022/08/01 01:13:43;;;;;;;7.32;3.78;;;20.20;99.90;;;;;;5036454;28;20415;-71
2022/08/01 01:16:14;;;;;;;9.52;4.25;;;20.00;99.90;;;;;;5036564;28;20120;-72
2022/08/01 01:18:46;;;;;;;9.27;4.72;;;20.10;99.90;;;;;;5036281;28;20107;-72
2022/08/01 01:21:18;;;;;;;6.95;3.08;;;20.30;99.90;;;;;;5035443;28;20048;-72
2022/08/01 01:23:56;;;;;;;6.45;3.80;;;20.40;99.90;;;;;;5036488;28;20046;-72
2022/08/01 01:26:45;;;;;;;6.47;3.28;;;20.20;99.90;;;;;;5036089;28;20041;-72
2022/08/01 01:29:16;;;;;;;8.82;4.03;;;20.20;99.90;;;;;;5038652;28;20044;-72
2022/08/01 01:31:48;;;;;;;6.50;3.08;;;20.00;99.90;;;;;;5040302;28;20065;-71
2022/08/01 01:34:17;;;;;;;6.72;2.38;;;19.80;99.90;;;;;;5040534;28;20422;-71
2022/08/01 01:36:45;;;;;;;3.78;1.95;;;19.60;99.90;;;;;;5039283;28;20051;-71
2022/08/01 01:39:14;;;;;;;9.27;2.47;;;19.50;99.90;;;;;;5040284;28;20083;-72
2022/08/01 01:41:41;;;;;;;7.05;2.17;;;19.70;99.90;;;;;;5040223;28;20037;-71
2022/08/01 01:44:09;;;;;;;10.40;3.13;;;19.70;99.90;;;;;;5040173;28;20492;-72
2022/08/01 01:46:36;;;;;;;7.20;2.45;;;19.70;99.90;;;;;;5040399;28;20038;-71
2022/08/01 01:49:03;;;;;;;4.03;1.98;;;19.70;99.90;;;;;;5040142;28;20041;-71
2022/08/01 01:51:29;;;;;;;5.45;2.20;;;19.80;99.90;;;;;;5040311;28;20037;-71
2022/08/01 01:53:56;;;;;;;3.42;1.83;;;19.90;99.90;;;;;;5040008;28;20431;-71
2022/08/01 01:56:23;;;;;;;9.10;2.28;;;20.00;99.90;;;;;;5039663;28;20045;-72
2022/08/01 01:58:53;;;;;;;8.38;2.20;;;19.80;99.90;;;;;;5039709;28;20446;-72
2022/08/01 02:01:20;;;;;;;10.00;2.67;;;19.70;99.90;;;;;;5039887;28;20438;-72
2022/08/01 02:03:48;;;;;;;6.60;2.17;;;19.70;99.90;;;;;;5038768;28;20041;-72
2022/08/01 02:06:15;;;;;;;10.35;2.72;;;19.70;99.90;;;;;;5038869;28;20120;-72
2022/08/01 02:08:43;;;;;;;7.13;2.08;;;19.60;99.90;;;;;;5040064;28;20045;-72
2022/08/01 02:11:17;;;;;;;7.82;2.22;;;19.60;99.90;;;;;;5039809;28;20048;-72
2022/08/01 02:13:44;;;;;;;5.18;1.63;;;19.60;99.90;;;;;;5039622;28;20041;-72
2022/08/01 02:16:11;;;;;;;7.43;2.30;;;19.70;99.90;;;;;;5039979;28;20134;-72
2022/08/01 02:18:37;;;;;;;9.65;2.22;;;19.80;99.90;;;;;;5039619;28;20132;-72
2022/08/01 02:21:08;;;;;;;11.95;2.13;;;19.80;99.90;;;;;;5039537;28;20100;-71
2022/08/01 02:23:36;;;;;;;10.23;1.90;;;19.90;99.90;;;;;;5039672;28;20048;-72
2022/08/01 02:26:07;;;;;;;8.88;2.20;;;19.90;99.90;;;;;;5039929;28;20041;-72
2022/08/01 02:28:50;;;;;;;9.23;1.95;;;19.90;99.90;;;;;;5039165;28;20042;-71
2022/08/01 02:31:20;;;;;;;10.88;2.35;;;19.90;99.90;;;;;;5038380;28;20129;-72
2022/08/01 02:33:53;;;;;;;8.30;1.48;;;19.90;99.90;;;;;;5039639;28;20037;-71
2022/08/01 02:36:21;;;;;;;9.65;1.42;;;20.00;99.90;;;;;;5039323;28;20116;-72
2022/08/01 02:38:47;;;;;;;12.32;2.00;;;19.90;99.90;;;;;;5038527;28;20073;-72
2022/08/01 02:41:19;;;;;;;7.40;1.80;;;19.90;99.90;;;;;;5038309;28;20378;-72
2022/08/01 02:43:49;;;;;;;6.60;1.75;;;20.00;99.90;;;;;;5039392;28;20038;-72
2022/08/01 02:46:23;;;;;;;3.85;1.23;;;20.00;99.90;;;;;;5039168;28;20041;-71
2022/08/01 02:48:53;;;;;;;4.90;1.48;;;19.90;99.90;;;;;;5039050;28;20484;-72
2022/08/01 02:51:21;;;;;;;10.43;2.20;;;20.00;99.90;;;;;;5038795;28;20450;-72
2022/08/01 02:53:48;;;;;;;10.40;2.10;;;20.00;99.90;;;;;;5039166;28;20041;-72
2022/08/01 02:56:15;;;;;;;9.88;2.28;;;19.90;99.90;;;;;;5038798;28;20050;-73
2022/08/01 02:58:42;;;;;;;9.10;1.90;;;19.90;99.90;;;;;;5038552;28;20045;-72
2022/08/01 03:01:09;;;;;;;9.43;2.28;;;19.70;99.90;;;;;;5038904;28;20053;-73
2022/08/01 03:03:37;;;;;;;13.77;2.75;;;19.80;99.90;;;;;;5038899;28;20071;-72
2022/08/01 03:06:03;;;;;;;13.40;2.95;;;19.70;99.90;;;;;;5038929;28;20034;-71
2022/08/01 03:08:30;;;;;;;9.93;3.35;;;19.50;99.90;;;;;;5038592;28;20098;-71
2022/08/01 03:10:58;;;;;;;17.08;4.00;;;19.40;99.90;;;;;;5038709;28;20343;-71
2022/08/01 03:13:25;;;;;;;10.90;3.50;;;19.50;99.90;;;;;;5038593;28;20045;-72
2022/08/01 03:15:53;;;;;;;11.73;2.78;;;19.50;99.90;;;;;;5038611;28;20442;-72
2022/08/01 03:18:22;;;;;;;11.55;2.85;;;19.50;99.90;;;;;;5037321;28;20049;-72
2022/08/01 03:20:50;;;;;;;12.85;3.00;;;19.50;99.90;;;;;;5038443;28;20403;-73
2022/08/01 03:23:16;;;;;;;8.43;2.88;;;19.50;99.90;;;;;;5038529;28;20350;-72
2022/08/01 03:25:44;;;;;;;6.90;2.53;;;19.60;99.90;;;;;;5038391;28;20073;-72
2022/08/01 03:28:14;;;;;;;17.90;4.18;;;19.40;99.90;;;;;;5037995;28;20120;-71
2022/08/01 03:30:42;;;;;;;13.90;3.25;;;19.50;99.90;;;;;;5038200;28;20037;-72
2022/08/01 03:33:09;;;;;;;7.75;2.60;;;19.50;99.90;;;;;;5037268;28;20077;-72
2022/08/01 03:35:42;;;;;;;13.95;3.00;;;19.40;99.90;;;;;;5038150;28;20041;-72
2022/08/01 03:38:13;;;;;;;13.68;3.35;;;19.30;99.90;;;;;;5038292;28;20041;-72
2022/08/01 03:40:48;;;;;;;14.52;3.67;;;18.90;99.90;;;;;;5038099;28;20048;-72
2022/08/01 03:43:24;;;;;;;10.55;2.92;;;18.90;99.90;;;;;;5038296;28;20073;-71
2022/08/01 03:45:53;;;;;;;9.38;3.42;;;19.00;99.90;;;;;;5038049;28;20037;-71
2022/08/01 03:48:22;;;;;;;12.35;3.10;;;19.10;99.90;;;;;;5036908;28;20041;-71
2022/08/01 03:50:51;;;;;;;12.07;3.15;;;19.00;99.90;;;;;;5038161;28;20362;-72
2022/08/01 03:53:22;;;;;;;12.30;2.80;;;19.00;99.90;;;;;;5036623;28;20359;-72
2022/08/01 03:55:49;;;;;;;10.95;2.85;;;19.10;99.90;;;;;;5037795;28;20080;-72
2022/08/01 03:58:16;;;;;;;16.92;4.75;;;19.20;99.90;;;;;;5037573;28;20063;-72
2022/08/01 04:00:43;;;;;;;11.10;2.90;;;19.30;99.90;;;;;;5037507;28;20084;-72
2022/08/01 04:03:10;;;;;;;9.20;2.45;;;19.40;99.90;;;;;;5037463;28;20064;-72
2022/08/01 04:05:36;;;;;;;9.27;2.65;;;19.30;99.90;;;;;;5037477;28;20038;-72
2022/08/01 04:08:02;;;;;;;12.18;2.83;;;19.30;99.90;;;;;;5037434;28;20034;-72
2022/08/01 04:10:28;;;;;;;9.20;3.03;;;19.40;99.90;;;;;;5037598;28;20095;-72
2022/08/01 04:12:54;;;;;;;8.90;2.60;;;19.40;99.90;;;;;;5037711;28;20037;-72
2022/08/01 04:15:20;;;;;;;10.40;2.78;;;19.50;99.90;;;;;;5037596;28;20426;-72
2022/08/01 04:17:46;;;;;;;11.57;3.22;;;19.40;99.90;;;;;;5036432;28;20041;-72
2022/08/01 04:20:13;;;;;;;16.42;3.95;;;19.30;99.90;;;;;;5037245;28;20037;-72
2022/08/01 04:22:39;;;;;;;18.67;3.15;;;19.30;99.90;;;;;;5037043;28;20046;-72
2022/08/01 04:25:10;;;;;;;8.80;2.90;;;19.20;99.90;;;;;;5036229;28;20050;-72
2022/08/01 04:27:39;;;;;;;18.55;3.53;;;19.00;99.90;;;;;;5036866;28;20142;-72
2022/08/01 04:30:06;;;;;;;14.50;3.00;;;19.10;99.90;;;;;;5037421;28;20092;-72
2022/08/01 04:32:35;;;;;;;11.57;2.83;;;19.10;99.90;;;;;;5037087;28;20116;-71
2022/08/01 04:35:06;;;;;;;9.85;3.20;;;19.20;99.90;;;;;;5037132;28;20037;-72
2022/08/01 04:37:33;;;;;;;10.77;3.00;;;19.10;99.90;;;;;;5037081;28;20052;-72
2022/08/01 04:40:00;;;;;;;10.30;2.55;;;19.20;99.90;;;;;;5036937;28;20438;-72
2022/08/01 04:42:27;;;;;;;11.93;3.55;;;19.20;99.90;;;;;;5037039;28;20048;-71
2022/08/01 04:44:53;;;;;;;12.15;2.70;;;19.20;99.90;;;;;;5036862;28;20049;-72
2022/08/01 04:47:20;;;;;;;12.25;2.28;;;19.20;99.90;;;;;;5037085;28;20083;-71
2022/08/01 04:49:46;;;;;;;16.10;3.15;;;19.10;99.90;;;;;;5036821;28;20033;-72
2022/08/01 04:52:12;;;;;;;10.02;2.95;;;19.20;99.90;;;;;;5037047;28;20038;-72
2022/08/01 04:54:37;;;;;;;8.95;2.40;;;19.20;99.90;;;;;;5035642;28;20068;-71
2022/08/01 04:57:06;;;;;;;11.23;2.47;;;19.20;99.90;;;;;;5035279;28;20052;-72
2022/08/01 04:59:41;;;;;;;13.70;3.15;;;18.90;99.90;;;;;;5036429;28;20061;-72
2022/08/01 05:02:18;;;;;;;14.20;2.72;;;19.00;99.90;;;;;;5036631;28;20049;-72
2022/08/01 05:04:45;;;;;;;17.67;3.20;;;19.00;99.90;;;;;;5036444;28;20048;-72
2022/08/01 05:07:12;;;;;;;11.00;2.60;;;19.10;99.90;;;;;;5035434;28;20056;-72
2022/08/01 05:09:38;;;;;;;9.15;2.33;;;19.10;99.90;;;;;;5036640;28;20042;-72
2022/08/01 05:12:05;;;;;;;15.75;2.67;;;19.10;99.90;;;;;;5019216;28;20041;-72
2022/08/01 05:14:32;;;;;;;11.70;2.85;;;19.10;99.90;;;;;;5036525;28;20125;-72
2022/08/01 05:17:06;;;;;;;12.57;2.40;;;19.10;99.90;;;;;;5036406;28;20050;-72
2022/08/01 05:19:32;;;;;;;19.40;2.83;;;19.20;99.90;;;;;;5036341;28;20052;-73
2022/08/01 05:22:04;;;;;;;20.05;3.42;;;19.20;99.90;;;;;;5036692;28;20041;-72
2022/08/01 05:24:38;;;;;;;17.60;3.55;;;19.40;99.90;;;;;;5036376;28;20083;-72
2022/08/01 05:27:06;;;;;;;12.85;2.20;;;19.30;99.90;;;;;;5036015;28;20116;-72
2022/08/01 05:29:31;;;;;;;17.88;3.33;;;19.30;99.90;;;;;;5035422;28;20045;-72
2022/08/01 05:31:58;;;;;;;11.23;2.60;;;19.40;99.90;;;;;;5036608;28;20041;-72
2022/08/01 05:34:25;;;;;;;11.45;2.45;;;19.30;99.90;;;;;;5035286;28;20053;-72
2022/08/01 05:36:50;;;;;;;15.75;3.22;;;19.20;99.90;;;;;;5036334;28;20045;-72
2022/08/01 05:39:16;;;;;;;17.98;2.92;;;19.30;99.90;;;;;;5036416;28;20100;-72
2022/08/01 05:41:42;;;;;;;15.43;2.90;;;19.10;99.90;;;;;;5036254;28;20049;-73
2022/08/01 05:44:08;;;;;;;17.92;3.03;;;19.10;99.90;;;;;;5035108;28;20342;-72
2022/08/01 05:46:34;;;;;;;15.05;3.08;;;19.20;99.90;;;;;;5036234;28;20068;-72
2022/08/01 05:49:01;;;;;;;13.50;3.53;;;19.10;99.90;;;;;;5036478;28;20044;-72
2022/08/01 05:51:27;;;;;;;13.70;2.83;;;19.10;99.90;;;;;;5036167;28;20395;-72
2022/08/01 05:53:53;;;;;;;13.80;2.60;;;19.20;99.90;;;;;;5036057;28;20088;-72
2022/08/01 05:56:20;;;;;;;18.88;3.30;;;19.20;99.90;;;;;;5036012;28;20045;-72
2022/08/01 05:58:46;;;;;;;15.40;3.42;;;19.10;99.90;;;;;;5035234;28;20452;-72
2022/08/01 06:01:12;;;;;;;17.65;3.58;;;19.20;99.90;;;;;;5035164;28;20125;-72
2022/08/01 06:03:38;;;;;;;18.60;3.55;;;19.20;99.90;;;;;;5035166;28;20046;-72
2022/08/01 06:06:04;;;;;;;13.73;2.75;;;19.20;99.90;;;;;;5036308;28;20422;-72
2022/08/01 06:08:29;;;;;;;17.45;3.65;;;19.20;99.90;;;;;;5035064;28;20038;-72
2022/08/01 06:10:55;;;;;;;18.13;3.20;;;19.20;99.90;;;;;;5035865;28;20044;-72
2022/08/01 06:13:21;;;;;;;14.68;2.78;;;19.20;99.90;;;;;;5018397;28;20045;-72
2022/08/01 06:15:47;;;;;;;19.05;3.13;;;19.10;99.90;;;;;;5036239;28;20079;-72
2022/08/01 06:18:14;;;;;;;20.67;3.47;;;18.90;99.90;;;;;;5039675;28;20048;-72
2022/08/01 06:20:40;;;;;;;13.07;2.42;;;18.90;99.90;;;;;;5039649;28;20037;-72
2022/08/01 06:23:05;;;;;;;17.85;2.90;;;19.00;99.90;;;;;;5039482;28;20040;-72
2022/08/01 06:25:31;;;;;;;15.20;3.30;;;19.00;99.90;;;;;;5039446;28;20504;-73
2022/08/01 06:27:57;;;;;;;17.10;3.05;;;19.10;99.90;;;;;;5039027;28;20037;-72
2022/08/01 06:30:23;;;;;;;16.73;3.33;;;19.00;99.90;;;;;;5039537;28;20059;-72
2022/08/01 06:32:48;;;;;;;20.42;3.17;;;18.90;99.90;;;;;;5039485;28;20192;-72
2022/08/01 06:35:15;;;;;;;16.00;3.53;;;19.10;99.90;;;;;;5039229;28;20386;-72
2022/08/01 06:37:41;;;;;;;17.30;3.15;;;19.10;99.90;;;;;;5039289;28;20381;-72
2022/08/01 06:40:11;;;;;;;16.95;2.97;;;19.10;99.90;;;;;;5039124;28;20041;-72
2022/08/01 06:42:37;;;;;;;16.85;3.05;;;18.80;99.90;;;;;;5039331;28;20042;-72
2022/08/01 06:45:09;;;;;;;20.42;3.33;;;18.60;99.90;;;;;;5039099;28;20037;-72
2022/08/01 06:47:35;;;;;;;22.25;3.08;;;18.60;99.90;;;;;;5039178;28;20045;-72
2022/08/01 06:50:02;;;;;;;17.80;3.15;;;18.80;99.90;;;;;;5039315;28;20097;-72
2022/08/01 06:52:28;;;;;;;10.30;2.33;;;18.90;99.90;;;;;;5039084;28;20049;-72
2022/08/01 06:54:53;;;;;;;19.38;2.90;;;19.00;99.90;;;;;;5038981;28;20044;-72
2022/08/01 06:57:19;;;;;;;9.00;2.00;;;18.80;99.90;;;;;;5038447;28;20049;-80
2022/08/01 06:59:45;;;;;;;14.02;2.65;;;18.80;99.90;;;;;;5037711;28;20084;-68
2022/08/01 07:02:10;;;;;;;16.05;3.10;;;19.00;99.90;;;;;;5038825;28;20095;-69
2022/08/01 07:04:36;;;;;;;14.20;3.10;;;19.00;99.90;;;;;;5038780;28;20034;-70
2022/08/01 07:07:04;;;;;;;19.40;3.15;;;19.10;99.90;;;;;;5038693;28;20508;-69
2022/08/01 07:09:29;;;;;;;13.35;2.20;;;19.20;99.90;;;;;;5037749;28;20156;-69
2022/08/01 07:11:55;;;;;;;13.55;2.38;;;19.20;99.90;;;;;;5036229;28;20116;-70
2022/08/01 07:14:21;;;;;;;19.85;2.90;;;19.20;99.90;;;;;;5037386;28;20477;-70
2022/08/01 07:16:47;;;;;;;14.13;2.60;;;19.30;99.90;;;;;;5038626;28;20350;-70
2022/08/01 07:19:13;;;;;;;13.60;2.20;;;19.40;99.90;;;;;;5038534;28;20037;-70
2022/08/01 07:21:39;;;;;;;14.93;2.90;;;19.50;99.90;;;;;;5036601;28;20091;-70
2022/08/01 07:24:06;;;;;;;16.98;2.60;;;19.50;99.90;;;;;;5038205;28;20050;-70
2022/08/01 07:26:32;;;;;;;11.63;2.28;;;19.70;99.90;;;;;;5037868;28;20112;-70
2022/08/01 07:28:58;;;;;;;17.63;2.60;;;19.70;99.90;;;;;;5038574;28;20414;-69
2022/08/01 07:31:24;;;;;;;15.52;2.78;;;19.60;99.90;;;;;;5037190;28;20073;-69
2022/08/01 07:33:50;;;;;;;11.57;2.47;;;19.60;99.90;;;;;;5036391;28;20077;-74
2022/08/01 07:36:17;;;;;;;14.90;2.47;;;19.60;99.90;;;;;;5037342;28;20116;-70
2022/08/01 07:38:42;;;;;;;22.17;3.13;;;19.60;99.90;;;;;;5036940;28;20045;-69
2022/08/01 07:41:08;;;;;;;12.45;2.42;;;19.80;99.90;;;;;;5038092;28;20112;-70
2022/08/01 07:43:35;;;;;;;18.55;2.20;;;19.80;99.90;;;;;;5038131;28;20334;-72
2022/08/01 07:46:02;;;;;;;12.05;2.65;;;19.60;99.90;;;;;;5038264;28;20095;-68
2022/08/01 07:48:29;;;;;;;10.35;2.38;;;19.60;99.90;;;;;;5038076;28;20436;-70
2022/08/01 07:50:55;;;;;;;15.63;3.15;;;19.60;99.90;;;;;;5037933;28;20091;-71
2022/08/01 07:53:21;;;;;;;11.60;2.22;;;19.70;99.90;;;;;;5036187;28;20042;-71
2022/08/01 07:55:47;;;;;;;16.00;2.40;;;19.80;99.90;;;;;;5037124;28;20041;-70
2022/08/01 07:58:12;;;;;;;17.10;2.47;;;20.10;99.90;;;;;;5037317;28;20072;-71
2022/08/01 08:00:38;;;;;;;12.77;2.88;;;20.40;99.90;;;;;;5037725;28;20057;-70
2022/08/01 08:03:04;;;;;;;20.55;2.28;;;20.50;99.90;;;;;;5036571;28;20084;-71
2022/08/01 08:05:30;;;;;;;11.43;2.38;;;20.30;99.90;;;;;;5037600;28;20077;-71
2022/08/01 08:07:56;;;;;;;13.80;2.10;;;20.50;99.90;;;;;;5037813;28;20440;-70
2022/08/01 08:10:22;;;;;;;15.60;2.53;;;20.60;99.90;;;;;;5037562;28;20069;-70
2022/08/01 08:12:48;;;;;;;15.13;2.08;;;20.20;99.90;;;;;;5036766;28;20362;-70
2022/08/01 08:15:14;;;;;;;11.30;2.08;;;20.30;99.90;;;;;;5037444;28;20037;-85
2022/08/01 08:17:40;;;;;;;8.48;1.60;;;20.30;99.90;;;;;;5036506;28;20056;-78
2022/08/01 08:20:07;;;;;;;14.80;1.80;;;20.20;99.90;;;;;;5037335;28;20041;-79
2022/08/01 08:22:33;;;;;;;9.77;1.55;;;20.20;99.90;;;;;;5034792;28;20041;-80
2022/08/01 08:24:59;;;;;;;13.77;1.83;;;20.20;99.90;;;;;;5030040;28;20103;-84
2022/08/01 08:27:25;;;;;;;12.07;1.90;;;20.10;99.90;;;;;;5035371;28;20051;-85
2022/08/01 08:29:51;;;;;;;9.43;1.85;;;20.20;99.90;;;;;;5012545;28;20116;-86
2022/08/01 08:32:17;;;;;;;8.30;1.77;;;20.40;99.90;;;;;;5016300;28;20038;-85
2022/08/01 08:34:43;;;;;;;11.27;1.63;;;20.50;99.90;;;;;;5017672;28;20120;-85
2022/08/01 08:37:08;;;;;;;16.75;2.28;;;20.40;99.90;;;;;;5018484;28;20072;-84
2022/08/01 08:39:34;;;;;;;10.70;1.63;;;20.30;99.90;;;;;;5035849;28;20038;-85
2022/08/01 08:42:01;;;;;;;10.60;2.00;;;20.00;99.90;;;;;;4999469;28;20092;-85
2022/08/01 08:44:27;;;;;;;12.20;1.92;;;20.00;99.90;;;;;;4992969;28;20080;-84
2022/08/01 08:46:55;;;;;;;13.00;1.60;;;20.10;99.90;;;;;;5014776;28;20034;-86
2022/08/01 08:49:26;;;;;;;13.43;1.70;;;20.20;99.90;;;;;;5018533;28;20048;-86
2022/08/01 08:51:53;;;;;;;11.02;1.92;;;20.20;99.90;;;;;;5035180;28;20308;-86
2022/08/01 08:54:23;;;;;;;8.90;1.85;;;20.30;99.90;;;;;;5017362;28;20045;-84
2022/08/01 08:56:51;;;;;;;13.15;1.90;;;20.60;99.90;;;;;;5018765;28;20045;-84
2022/08/01 08:59:17;;;;;;;8.52;1.80;;;20.40;99.90;;;;;;5035066;28;20446;-85
2022/08/01 09:01:43;;;;;;;12.02;1.52;;;20.20;99.90;;;;;;5034750;28;20041;-84
2022/08/01 09:04:10;;;;;;;13.38;1.90;;;20.10;99.90;;;;;;5018345;28;20042;-86
2022/08/01 09:06:36;;;;;;;9.52;1.50;;;20.30;99.90;;;;;;5018201;28;20051;-85
2022/08/01 09:09:03;;;;;;;9.05;1.60;;;20.30;99.90;;;;;;5017982;28;20041;-86
2022/08/01 09:11:29;;;;;;;12.25;1.70;;;20.50;99.90;;;;;;5035335;28;20038;-84
2022/08/01 09:14:02;;;;;;;7.93;1.30;;;20.60;99.90;;;;;;5019173;28;20037;-85
2022/08/01 09:16:27;;;;;;;12.65;1.60;;;20.30;99.90;;;;;;5018793;28;20045;-85
2022/08/01 09:18:53;;;;;;;9.15;1.70;;;20.20;99.90;;;;;;5034023;28;20041;-85
2022/08/01 09:21:21;;;;;;;10.45;1.65;;;20.00;99.90;;;;;;5019069;28;20061;-86
2022/08/01 09:23:46;;;;;;;10.02;1.45;;;20.30;99.90;;;;;;5033912;28;20076;-86
2022/08/01 09:26:14;;;;;;;10.07;1.85;;;20.30;99.90;;;;;;5018937;28;20068;-85
2022/08/01 09:28:40;;;;;;;6.35;1.15;;;20.50;99.90;;;;;;5034839;28;20044;-88
2022/08/01 09:31:08;;;;;;;14.77;1.73;;;20.70;99.90;;;;;;5031192;28;20038;-84
2022/08/01 09:33:57;;;;;;;9.48;1.23;;;20.90;99.90;;;;;;5033649;28;20037;-71
2022/08/01 09:36:43;;;;;;;6.55;1.23;;;20.90;99.90;;;;;;5035684;28;20037;-69
2022/08/01 09:39:14;;;;;;;12.55;1.40;;;21.00;99.90;;;;;;5036359;28;20042;-69
2022/08/01 09:41:40;;;;;;;13.00;1.70;;;21.40;99.90;;;;;;5035843;28;20406;-70
2022/08/01 09:44:05;;;;;;;13.05;1.88;;;21.60;99.90;;;;;;5033786;28;20115;-69
2022/08/01 09:46:31;;;;;;;7.40;1.10;;;22.20;99.90;;;;;;5035852;28;20375;-74
2022/08/01 09:49:04;;;;;;;10.70;1.42;;;22.50;99.90;;;;;;5036140;28;20034;-69
2022/08/01 09:51:37;;;;;;;14.75;1.92;;;22.30;99.90;;;;;;5038454;28;20381;-69
2022/08/01 09:54:05;;;;;;;14.60;2.05;;;22.20;99.90;;;;;;5039224;28;20374;-73
2022/08/01 09:56:38;;;;;;;7.05;1.27;;;22.40;99.90;;;;;;5040182;28;20048;-69
2022/08/01 09:59:05;;;;;;;11.45;1.50;;;22.60;99.90;;;;;;5039120;28;20057;-70
2022/08/01 10:01:48;;;;;;;6.15;1.50;;;22.70;99.90;;;;;;5039986;28;20128;-70
2022/08/01 10:04:20;;;;;;;12.38;1.27;;;22.80;99.90;;;;;;5036420;28;20041;-77
2022/08/01 10:06:54;;;;;;;9.15;1.33;;;22.90;99.90;;;;;;5037259;28;20044;-70
2022/08/01 10:09:31;;;;;;;8.93;1.25;;;23.00;99.90;;;;;;5037977;28;20115;-70
2022/08/01 10:11:58;;;;;;;12.10;1.65;;;23.00;99.90;;;;;;5036807;28;20045;-69
2022/08/01 10:14:26;;;;;;;11.30;1.38;;;22.90;99.90;;;;;;5039382;28;20434;-69
2022/08/01 10:16:55;;;;;;;6.65;1.30;;;22.60;99.90;;;;;;5039601;28;20073;-69
2022/08/01 10:19:23;;;;;;;8.70;1.30;;;22.60;99.90;;;;;;5039578;28;20120;-68
2022/08/01 10:21:52;;;;;;;9.00;1.48;;;23.00;99.90;;;;;;5039608;28;20041;-68
2022/08/01 10:24:23;;;;;;;11.68;1.45;;;23.30;99.90;;;;;;5039676;28;20045;-78
2022/08/01 10:26:52;;;;;;;10.82;1.05;;;23.10;99.90;;;;;;5039222;28;20042;-78
2022/08/01 10:29:20;;;;;;;7.85;1.17;;;22.60;99.90;;;;;;5038474;28;20116;-77
2022/08/01 10:31:46;;;;;;;5.35;1.10;;;22.30;99.90;;;;;;5038880;28;20099;-77
2022/08/01 10:34:18;;;;;;;6.47;1.20;;;22.00;99.90;;;;;;5039404;28;20102;-77
2022/08/01 10:36:45;;;;;;;7.63;1.42;;;21.70;99.90;;;;;;5020991;28;20037;-69
2022/08/01 10:39:12;;;;;;;9.25;1.35;;;21.80;99.90;;;;;;5039288;28;20047;-76
2022/08/01 10:41:41;;;;;;;9.10;1.35;;;22.30;99.90;;;;;;5038480;28;20049;-77
2022/08/01 10:44:07;;;;;;;6.00;0.98;;;22.50;99.90;;;;;;5038099;28;20128;-82
2022/08/01 10:46:37;;;;;;;12.50;1.40;;;22.50;99.90;;;;;;5038066;28;20053;-81
2022/08/01 10:49:17;;;;;;;7.30;1.00;;;22.50;99.90;;;;;;5039398;28;20089;-81
2022/08/01 10:51:44;;;;;;;5.53;1.00;;;22.80;99.90;;;;;;5036271;28;20042;-81
2022/08/01 10:54:12;;;;;;;6.38;1.08;;;22.40;99.90;;;;;;5007155;28;20179;-81
2022/08/01 10:56:50;;;;;;;14.50;1.65;;;21.70;99.90;;;;;;5021800;28;20410;-82
2022/08/01 10:59:27;;;;;;;8.48;1.20;;;21.20;99.80;;;;;;5021029;28;20065;-81
2022/08/01 11:02:01;;;;;;;12.27;1.50;;;21.20;99.90;;;;;;5037329;28;20045;-80
2022/08/01 11:04:54;;;;;;;13.90;1.80;;;21.80;99.90;;;;;;5020905;28;20189;-81
2022/08/01 11:07:57;;;;;;;7.47;1.15;;;22.00;99.90;;;;;;5037990;28;20069;-79
2022/08/01 11:10:38;;;;;;;12.85;1.20;;;21.90;99.90;;;;;;4926748;29;20081;-76
2022/08/01 11:13:07;;;;;;;8.95;1.10;;;21.90;99.90;;;;;;5028004;28;20052;-75
2022/08/01 11:15:34;;;;;;;7.90;0.90;;;22.00;99.90;;;;;;5036982;28;20045;-70
2022/08/01 11:18:26;;;;;;;8.02;1.25;;;22.50;99.80;;;;;;5038629;28;20069;-70
2022/08/01 11:21:02;;;;;;;5.32;1.00;;;23.10;99.50;;;;;;5032941;28;20049;-70
2022/08/01 11:23:29;;;;;;;5.45;1.20;;;23.10;99.60;;;;;;5037483;28;20045;-70
2022/08/01 11:25:55;;;;;;;9.45;1.40;;;23.50;99.90;;;;;;5036330;28;20117;-70
2022/08/01 11:28:27;;;;;;;8.68;0.93;;;23.50;99.50;;;;;;5036923;28;20121;-70
2022/08/01 11:31:08;;;;;;;6.90;1.08;;;23.00;99.40;;;;;;5038364;28;20041;-70
2022/08/01 11:33:44;;;;;;;7.28;0.95;;;22.60;99.50;;;;;;5038946;28;20065;-73
2022/08/01 11:36:12;;;;;;;8.07;1.10;;;22.10;99.70;;;;;;5037031;28;20445;-73
2022/08/01 11:38:45;;;;;;;9.07;1.00;;;22.40;99.60;;;;;;5038030;28;20056;-73
2022/08/01 11:41:26;;;;;;;6.05;1.02;;;22.30;99.90;;;;;;5037542;28;20088;-76
2022/08/01 11:44:01;;;;;;;7.65;1.38;;;22.40;99.80;;;;;;5036900;28;20084;-70
2022/08/01 11:46:45;;;;;;;9.55;1.40;;;22.30;99.90;;;;;;5038339;28;20117;-70
2022/08/01 11:49:44;;;;;;;6.47;0.80;;;22.70;99.90;;;;;;5037186;28;20038;-79
2022/08/01 11:52:09;;;;;;;8.15;1.02;;;22.90;99.90;;;;;;5037919;28;20116;-80
2022/08/01 11:54:39;;;;;;;6.50;0.90;;;23.00;99.90;;;;;;5036951;28;20132;-80
2022/08/01 11:57:09;;;;;;;5.00;0.93;;;22.60;99.40;;;;;;5036721;28;20369;-69
2022/08/01 11:59:49;;;;;;;8.60;0.90;;;22.60;99.60;;;;;;5037858;28;20072;-69
2022/08/01 12:02:24;;;;;;;5.45;0.98;;;23.30;99.10;;;;;;5037022;28;20080;-70
2022/08/01 12:05:01;;;;;;;6.32;1.08;;;23.20;99.10;;;;;;5037687;28;20042;-69
2022/08/01 12:07:31;;;;;;;7.70;1.15;;;23.70;99.20;;;;;;5036615;28;20419;-69
2022/08/01 12:10:17;;;;;;;6.72;1.10;;;23.80;98.50;;;;;;5037734;28;20052;-69
2022/08/01 12:12:45;;;;;;;5.70;1.60;;;23.60;98.70;;;;;;5037286;28;20105;-68
2022/08/01 12:15:12;;;;;;;7.50;1.10;;;23.60;98.70;;;;;;5037249;28;20118;-68
2022/08/01 12:17:39;;;;;;;6.00;1.10;;;24.00;98.30;;;;;;5036706;28;20466;-68
2022/08/01 12:20:08;;;;;;;9.02;1.10;;;24.30;98.60;;;;;;5036608;28;20046;-68
2022/08/01 12:22:34;;;;;;;4.93;0.90;;;24.50;98.10;;;;;;5037440;28;20038;-68
2022/08/01 12:25:16;;;;;;;7.53;1.00;;;24.60;98.10;;;;;;5036320;28;20142;-68
2022/08/01 12:27:44;;;;;;;5.45;0.82;;;24.00;97.90;;;;;;5036784;28;20052;-71
2022/08/01 12:30:15;;;;;;;7.95;0.85;;;24.20;98.40;;;;;;5035847;28;20069;-81
2022/08/01 12:32:43;;;;;;;4.43;0.80;;;24.60;97.90;;;;;;5019529;28;20037;-72
2022/08/01 12:35:26;;;;;;;4.75;1.23;;;24.60;98.10;;;;;;5037275;28;20045;-73
2022/08/01 12:37:54;;;;;;;5.32;0.90;;;24.60;98.10;;;;;;5037328;28;20383;-72
2022/08/01 12:40:44;;;;;;;8.15;0.95;;;25.00;97.80;;;;;;5036409;28;20053;-73
2022/08/01 12:43:16;;;;;;;7.53;0.77;;;24.80;97.80;;;;;;5024963;28;20085;-73
2022/08/01 12:45:43;;;;;;;8.07;1.10;;;25.30;97.80;;;;;;5036140;28;20048;-72
2022/08/01 12:48:14;;;;;;;3.20;0.75;;;25.50;97.30;;;;;;5036944;28;20120;-73
2022/08/01 12:50:50;;;;;;;7.32;0.80;;;25.60;97.10;;;;;;5036863;28;20065;-73